Kaami — C6VO9 — position and weather

sailwx.info

Track history (hours):
 
Tides and Currents Weather Stations Pressure Air Temp Water Temp Dewpoint Dewpoint Depression Visibility Wind Speed Wind Dir Waves Ship Positions

Kaami

Last reported at 2016-Aug-28 08:07 UTC. Time now 2016-Aug-30 22:31 UTC.
Position N 55°45' E 020°52'.

Length 90 m; draft 3.6 m.

Type: Cargo ship. MMSI: 308542000.

Date/timePositionNaut miles runAvg speedWind from/ knotsBaromVisibWave heightAir tempDewpointWater temp
2016-Aug-28 08:07N 55°45' E 020°52'13 8.6
2016-Aug-28 06:33N 55°33' E 020°40'9 8.9
2016-Aug-28 05:34N 55°26' E 020°32'9 8.8
2016-Aug-28 04:34N 55°19' E 020°23'9 8.7
2016-Aug-28 03:34N 55°12' E 020°14'9 8.6
2016-Aug-28 02:33N 55°05' E 020°04'9 8.5
2016-Aug-28 01:33N 54°59' E 019°54'8 8.4
2016-Aug-28 00:34N 54°52' E 019°48'9 8.7
2016-Aug-27 23:34N 54°43' E 019°46'8 7.8
2016-Aug-27 22:34N 54°38' E 019°56'8 7.9
2016-Aug-27 21:34N 54°40' E 020°09'6 6.4
2016-Aug-27 20:34N 54°41' E 020°20'5 4.5
2016-Aug-27 19:21N 54°42' E 020°29'0 0.0
2016-Aug-27 18:30N 54°42' E 020°29'0 0.0
2016-Aug-27 17:30N 54°42' E 020°29'0 0.0
2016-Aug-27 16:15N 54°42' E 020°29'0 0.0
2016-Aug-27 15:33N 54°42' E 020°29'0 0.0
2016-Aug-27 14:33N 54°42' E 020°29'0 0.0
2016-Aug-27 13:30N 54°42' E 020°29'0 0.0
2016-Aug-27 11:33N 54°42' E 020°29'22 1.0
2016-Aug-26 13:10N 54°39' E 019°52'5 7.5
2016-Aug-26 12:33N 54°41' E 019°45'6 6.5
2016-Aug-26 11:33N 54°43' E 019°34'6 6.0
2016-Aug-26 10:33N 54°45' E 019°24'6 5.7
2016-Aug-26 09:33N 54°46' E 019°14'6 5.7
2016-Aug-26 08:33N 54°47' E 019°05'6 5.7
2016-Aug-26 07:34N 54°49' E 018°55'5 5.4
2016-Aug-26 06:33N 54°50' E 018°46'11 5.3
2016-Aug-26 04:33N 54°53' E 018°28'6 5.5
2016-Aug-26 03:33N 54°52' E 018°19'6 5.6
2016-Aug-26 02:33N 54°52' E 018°09'6 5.5
2016-Aug-26 01:33N 54°52' E 017°59'18 5.7
2016-Aug-25 22:27N 54°52' E 017°29'8 6.0
2016-Aug-25 21:09N 54°52' E 017°15'4 6.0
2016-Aug-25 20:31N 54°51' E 017°09'6 6.1
2016-Aug-25 19:33N 54°50' E 016°59'6 6.1
2016-Aug-25 18:31N 54°49' E 016°48'6 6.1
2016-Aug-25 17:32N 54°47' E 016°38'37 6.1
2016-Aug-25 11:25N 54°50' E 015°34'5 6.2
2016-Aug-25 10:33N 54°51' E 015°24'7 6.4
2016-Aug-25 09:31N 54°52' E 015°13'6 6.5
2016-Aug-25 08:33N 54°53' E 015°02'6 6.5
2016-Aug-25 07:33N 54°53' E 014°51'6 6.4
2016-Aug-25 06:33N 54°54' E 014°40'14 7.1
2016-Aug-25 04:33N 54°55' E 014°16'8 8.3
2016-Aug-25 03:33N 54°56' E 014°01'8 8.0
2016-Aug-25 02:34N 54°58' E 013°48'8 8.1
2016-Aug-25 01:33N 55°02' E 013°35'8 8.1
2016-Aug-25 00:33N 55°05' E 013°23'8 8.0
2016-Aug-24 23:33N 55°09' E 013°10'8 8.0
2016-Aug-24 22:33N 55°13' E 012°58'8 7.8
2016-Aug-24 21:33N 55°16' E 012°45'6 6.2
2016-Aug-24 20:33N 55°21' E 012°38'7 7.4
2016-Aug-24 19:33N 55°28' E 012°41'7 7.1
2016-Aug-24 18:33N 55°35' E 012°42'7 6.7
2016-Aug-24 17:33N 55°41' E 012°41'7 6.8
2016-Aug-24 16:33N 55°48' E 012°42'7 6.9
2016-Aug-24 15:33N 55°55' E 012°38'7 6.8
2016-Aug-24 14:33N 56°02' E 012°38'5 5.3
2016-Aug-24 13:33N 56°06' E 012°33'7 7.0
2016-Aug-24 12:33N 56°10' E 012°23'9 8.3
2016-Aug-24 11:27N 56°16' E 012°09'9 8.2
2016-Aug-24 10:23N 56°23' E 012°01'8 8.5
2016-Aug-24 09:24N 56°31' E 011°58'7 8.1
2016-Aug-24 08:33N 56°38' E 011°56'8 7.7
2016-Aug-24 07:33N 56°45' E 011°52'7 6.6
2016-Aug-24 06:33N 56°52' E 011°48'16 8.0
2016-Aug-24 04:33N 57°06' E 011°34'8 7.9
2016-Aug-24 03:31N 57°13' E 011°27'8 8.1
2016-Aug-24 02:33N 57°20' E 011°20'8 8.0
2016-Aug-24 01:33N 57°26' E 011°11'8 8.0
2016-Aug-24 00:33N 57°32' E 011°02'8 8.3
2016-Aug-23 23:33N 57°39' E 010°52'8 8.3
2016-Aug-23 22:32N 57°46' E 010°45'19 9.3
2016-Aug-23 20:32N 57°46' E 010°10'9 9.0
2016-Aug-23 19:29N 57°45' E 009°52'103 8.7
2016-Aug-23 07:32N 57°43' E 006°38'8 7.2
2016-Aug-23 06:28N 57°46' E 006°25'7 7.6
2016-Aug-23 05:33N 57°51' E 006°16'8 7.3
2016-Aug-23 04:31N 57°56' E 006°05'10 7.1
2016-Aug-23 03:07N 58°02' E 005°51'43 7.7
2016-Aug-22 21:31N 58°37' E 005°01'7 7.1
2016-Aug-22 20:33N 58°43' E 004°57'7 6.6
2016-Aug-22 19:34N 58°50' E 004°52'8 7.0
2016-Aug-22 18:26N 58°57' E 004°47'8 7.2
2016-Aug-22 17:16N 59°05' E 004°42'  
2016-Aug-19 01:14N 66°29' E 011°36'5 8.0
2016-Aug-19 00:34N 66°33' E 011°44'8 8.1
2016-Aug-18 23:33N 66°40' E 011°56'8 8.3
2016-Aug-18 22:33N 66°47' E 012°07'71 8.9
2016-Aug-18 14:32N 67°44' E 013°58'10 7.5
2016-Aug-18 13:15N 67°50' E 014°17'  
Track history (hours):
 
Tides and Currents Weather Stations Pressure Air Temp Water Temp Dewpoint Dewpoint Depression Visibility Wind Speed Wind Dir Waves Ship Positions

Kaami

Last reported at 2016-Aug-28 08:07 UTC. Time now 2016-Aug-30 22:31 UTC.
Position N 55°45' E 020°52'.

Length 90 m; draft 3.6 m.

Type: Cargo ship. MMSI: 308542000.

Date/timePositionNaut miles runAvg speedWind from/ knotsBaromVisibWave heightAir tempDewpointWater temp
2016-Aug-28 08:07N 55°45' E 020°52'13 8.6
2016-Aug-28 06:33N 55°33' E 020°40'9 8.9
2016-Aug-28 05:34N 55°26' E 020°32'9 8.8
2016-Aug-28 04:34N 55°19' E 020°23'9 8.7
2016-Aug-28 03:34N 55°12' E 020°14'9 8.6
2016-Aug-28 02:33N 55°05' E 020°04'9 8.5
2016-Aug-28 01:33N 54°59' E 019°54'8 8.4
2016-Aug-28 00:34N 54°52' E 019°48'9 8.7
2016-Aug-27 23:34N 54°43' E 019°46'8 7.8
2016-Aug-27 22:34N 54°38' E 019°56'8 7.9
2016-Aug-27 21:34N 54°40' E 020°09'6 6.4
2016-Aug-27 20:34N 54°41' E 020°20'5 4.5
2016-Aug-27 19:21N 54°42' E 020°29'0 0.0
2016-Aug-27 18:30N 54°42' E 020°29'0 0.0
2016-Aug-27 17:30N 54°42' E 020°29'0 0.0
2016-Aug-27 16:15N 54°42' E 020°29'0 0.0
2016-Aug-27 15:33N 54°42' E 020°29'0 0.0
2016-Aug-27 14:33N 54°42' E 020°29'0 0.0
2016-Aug-27 13:30N 54°42' E 020°29'0 0.0
2016-Aug-27 11:33N 54°42' E 020°29'22 1.0
2016-Aug-26 13:10N 54°39' E 019°52'5 7.5
2016-Aug-26 12:33N 54°41' E 019°45'6 6.5
2016-Aug-26 11:33N 54°43' E 019°34'6 6.0
2016-Aug-26 10:33N 54°45' E 019°24'6 5.7
2016-Aug-26 09:33N 54°46' E 019°14'6 5.7
2016-Aug-26 08:33N 54°47' E 019°05'6 5.7
2016-Aug-26 07:34N 54°49' E 018°55'5 5.4
2016-Aug-26 06:33N 54°50' E 018°46'11 5.3
2016-Aug-26 04:33N 54°53' E 018°28'6 5.5
2016-Aug-26 03:33N 54°52' E 018°19'6 5.6
2016-Aug-26 02:33N 54°52' E 018°09'6 5.5
2016-Aug-26 01:33N 54°52' E 017°59'18 5.7
2016-Aug-25 22:27N 54°52' E 017°29'8 6.0
2016-Aug-25 21:09N 54°52' E 017°15'4 6.0
2016-Aug-25 20:31N 54°51' E 017°09'6 6.1
2016-Aug-25 19:33N 54°50' E 016°59'6 6.1
2016-Aug-25 18:31N 54°49' E 016°48'6 6.1
2016-Aug-25 17:32N 54°47' E 016°38'37 6.1
2016-Aug-25 11:25N 54°50' E 015°34'5 6.2
2016-Aug-25 10:33N 54°51' E 015°24'7 6.4
2016-Aug-25 09:31N 54°52' E 015°13'6 6.5
2016-Aug-25 08:33N 54°53' E 015°02'6 6.5
2016-Aug-25 07:33N 54°53' E 014°51'6 6.4
2016-Aug-25 06:33N 54°54' E 014°40'14 7.1
2016-Aug-25 04:33N 54°55' E 014°16'8 8.3
2016-Aug-25 03:33N 54°56' E 014°01'8 8.0
2016-Aug-25 02:34N 54°58' E 013°48'8 8.1
2016-Aug-25 01:33N 55°02' E 013°35'8 8.1
2016-Aug-25 00:33N 55°05' E 013°23'8 8.0
2016-Aug-24 23:33N 55°09' E 013°10'8 8.0
2016-Aug-24 22:33N 55°13' E 012°58'8 7.8
2016-Aug-24 21:33N 55°16' E 012°45'6 6.2
2016-Aug-24 20:33N 55°21' E 012°38'7 7.4
2016-Aug-24 19:33N 55°28' E 012°41'7 7.1
2016-Aug-24 18:33N 55°35' E 012°42'7 6.7
2016-Aug-24 17:33N 55°41' E 012°41'7 6.8
2016-Aug-24 16:33N 55°48' E 012°42'7 6.9
2016-Aug-24 15:33N 55°55' E 012°38'7 6.8
2016-Aug-24 14:33N 56°02' E 012°38'5 5.3
2016-Aug-24 13:33N 56°06' E 012°33'7 7.0
2016-Aug-24 12:33N 56°10' E 012°23'9 8.3
2016-Aug-24 11:27N 56°16' E 012°09'9 8.2
2016-Aug-24 10:23N 56°23' E 012°01'8 8.5
2016-Aug-24 09:24N 56°31' E 011°58'7 8.1
2016-Aug-24 08:33N 56°38' E 011°56'8 7.7
2016-Aug-24 07:33N 56°45' E 011°52'7 6.6
2016-Aug-24 06:33N 56°52' E 011°48'16 8.0
2016-Aug-24 04:33N 57°06' E 011°34'8 7.9
2016-Aug-24 03:31N 57°13' E 011°27'8 8.1
2016-Aug-24 02:33N 57°20' E 011°20'8 8.0
2016-Aug-24 01:33N 57°26' E 011°11'8 8.0
2016-Aug-24 00:33N 57°32' E 011°02'8 8.3
2016-Aug-23 23:33N 57°39' E 010°52'8 8.3
2016-Aug-23 22:32N 57°46' E 010°45'19 9.3
2016-Aug-23 20:32N 57°46' E 010°10'9 9.0
2016-Aug-23 19:29N 57°45' E 009°52'103 8.7
2016-Aug-23 07:32N 57°43' E 006°38'8 7.2
2016-Aug-23 06:28N 57°46' E 006°25'7 7.6
2016-Aug-23 05:33N 57°51' E 006°16'8 7.3
2016-Aug-23 04:31N 57°56' E 006°05'10 7.1
2016-Aug-23 03:07N 58°02' E 005°51'43 7.7
2016-Aug-22 21:31N 58°37' E 005°01'7 7.1
2016-Aug-22 20:33N 58°43' E 004°57'7 6.6
2016-Aug-22 19:34N 58°50' E 004°52'8 7.0
2016-Aug-22 18:26N 58°57' E 004°47'8 7.2
2016-Aug-22 17:16N 59°05' E 004°42'  
2016-Aug-19 01:14N 66°29' E 011°36'5 8.0
2016-Aug-19 00:34N 66°33' E 011°44'8 8.1
2016-Aug-18 23:33N 66°40' E 011°56'8 8.3
2016-Aug-18 22:33N 66°47' E 012°07'71 8.9
2016-Aug-18 14:32N 67°44' E 013°58'10 7.5
2016-Aug-18 13:15N 67°50' E 014°17'  

Dump ship's entire track history